createdAt,value
2022-10-22T00:00:12.763Z,71.92
2022-10-22T00:02:40.274Z,71.78
2022-10-22T00:05:07.704Z,71.77
2022-10-22T00:07:35.292Z,71.67
2022-10-22T00:10:03.495Z,72.06
2022-10-22T00:12:30.711Z,71.89
2022-10-22T00:14:58.053Z,72.20
2022-10-22T00:17:25.010Z,71.76
2022-10-22T00:19:52.158Z,71.36
2022-10-22T00:22:19.214Z,71.44
2022-10-22T00:24:48.643Z,71.46
2022-10-22T00:27:15.733Z,71.29
2022-10-22T00:29:42.788Z,71.40
2022-10-22T00:32:12.105Z,71.75
2022-10-22T00:34:39.085Z,71.00
2022-10-22T00:37:06.095Z,71.52
2022-10-22T00:39:33.151Z,71.60
2022-10-22T00:42:00.230Z,71.62
2022-10-22T00:45:04.952Z,72.33
2022-10-22T00:47:37.875Z,72.04
2022-10-22T00:50:09.575Z,71.94
2022-10-22T00:52:37.333Z,72.09
2022-10-22T00:55:06.134Z,71.87
2022-10-22T00:57:34.927Z,72.28
2022-10-22T01:00:02.811Z,71.78
2022-10-22T01:02:31.270Z,72.07
2022-10-22T01:04:58.206Z,71.79
2022-10-22T01:07:26.160Z,71.91
2022-10-22T01:10:11.181Z,72.17
2022-10-22T01:12:51.246Z,71.84
2022-10-22T01:15:45.693Z,71.75
2022-10-22T01:18:23.382Z,72.20
2022-10-22T01:20:59.417Z,71.89
2022-10-22T01:24:03.572Z,72.14
2022-10-22T01:26:51.749Z,72.12
2022-10-22T01:29:29.509Z,72.18
2022-10-22T01:32:07.569Z,72.37
2022-10-22T01:34:35.247Z,72.54
2022-10-22T01:37:03.767Z,72.35
2022-10-22T01:39:31.588Z,72.45
2022-10-22T01:41:58.902Z,72.56
2022-10-22T01:44:28.712Z,72.14
2022-10-22T01:47:28.620Z,72.58
2022-10-22T01:50:28.782Z,72.58
2022-10-22T01:53:10.610Z,72.23
2022-10-22T01:56:04.652Z,72.71
2022-10-22T01:58:42.029Z,72.37
2022-10-22T02:01:39.780Z,72.96
2022-10-22T02:04:15.875Z,72.54
2022-10-22T02:06:45.566Z,72.32
2022-10-22T02:09:16.669Z,72.33
2022-10-22T02:11:45.646Z,72.32
2022-10-22T02:14:14.185Z,72.25
2022-10-22T02:16:44.847Z,72.13
2022-10-22T02:19:41.077Z,72.69
2022-10-22T02:22:08.460Z,72.29
2022-10-22T02:24:36.614Z,72.40
2022-10-22T02:27:17.199Z,72.27
2022-10-22T02:30:00.242Z,72.01
2022-10-22T02:32:32.928Z,72.46
2022-10-22T02:35:01.574Z,72.23
2022-10-22T02:37:29.944Z,71.94
2022-10-22T02:39:56.846Z,71.88
2022-10-22T02:42:26.544Z,71.87
2022-10-22T02:44:53.561Z,72.28
2022-10-22T02:47:20.697Z,71.93
2022-10-22T02:49:47.916Z,72.14
2022-10-22T02:52:14.937Z,71.58
2022-10-22T02:54:42.006Z,71.50
2022-10-22T02:57:09.233Z,71.85
2022-10-22T02:59:36.231Z,71.68
2022-10-22T03:02:03.457Z,71.54
2022-10-22T03:04:30.498Z,71.65
2022-10-22T03:06:57.641Z,71.67
2022-10-22T03:09:26.810Z,72.05
2022-10-22T03:11:53.838Z,71.90
2022-10-22T03:14:20.829Z,71.97
2022-10-22T03:16:47.839Z,71.95
2022-10-22T03:19:14.890Z,71.64
2022-10-22T03:21:50.407Z,71.60
2022-10-22T03:24:22.332Z,71.87
2022-10-22T03:26:51.948Z,71.60
2022-10-22T03:29:21.776Z,71.65
2022-10-22T03:31:48.683Z,71.33
2022-10-22T03:34:15.757Z,71.27
2022-10-22T03:36:42.977Z,71.38
2022-10-22T03:39:12.362Z,71.37
2022-10-22T03:41:39.576Z,71.46
2022-10-22T03:44:07.113Z,71.51
2022-10-22T03:46:34.075Z,71.46
2022-10-22T03:49:01.003Z,71.17
2022-10-22T03:51:29.067Z,71.17
2022-10-22T03:53:56.214Z,71.06
2022-10-22T03:56:23.574Z,70.90
2022-10-22T03:58:50.763Z,71.41
2022-10-22T04:01:17.739Z,71.63
2022-10-22T04:03:44.711Z,71.13
2022-10-22T04:06:13.333Z,71.27
2022-10-22T04:08:41.832Z,71.42
2022-10-22T04:11:09.544Z,70.71
2022-10-22T04:13:36.907Z,71.63
2022-10-22T04:16:07.936Z,72.09
2022-10-22T04:18:34.985Z,71.84
2022-10-22T04:21:01.996Z,71.68
2022-10-22T04:23:31.492Z,71.20
2022-10-22T04:26:03.892Z,71.78
2022-10-22T04:28:31.013Z,71.29
2022-10-22T04:30:58.000Z,71.51
2022-10-22T04:33:25.254Z,71.28
2022-10-22T04:35:52.160Z,71.37
2022-10-22T04:38:19.132Z,71.41
2022-10-22T04:40:46.036Z,71.49
2022-10-22T04:43:13.055Z,71.18
2022-10-22T04:45:40.079Z,71.49
2022-10-22T04:48:07.322Z,71.62
2022-10-22T04:50:34.351Z,71.88
2022-10-22T04:53:01.613Z,71.52
2022-10-22T04:55:28.629Z,71.41
2022-10-22T04:57:55.519Z,71.52
2022-10-22T05:00:22.627Z,71.56
2022-10-22T05:02:51.196Z,71.20
2022-10-22T05:05:18.303Z,70.96
2022-10-22T05:07:45.309Z,71.02
2022-10-22T05:10:12.348Z,71.51
2022-10-22T05:12:39.411Z,71.41
2022-10-22T05:15:06.991Z,70.80
2022-10-22T05:17:37.433Z,71.36
2022-10-22T05:20:05.497Z,71.58
2022-10-22T05:22:34.412Z,71.63
2022-10-22T05:25:01.790Z,71.67
2022-10-22T05:27:30.450Z,72.20
2022-10-22T05:29:57.453Z,72.47
2022-10-22T05:32:24.472Z,72.37
2022-10-22T05:34:51.417Z,72.29
2022-10-22T05:37:18.374Z,72.32
2022-10-22T05:39:45.447Z,72.30
2022-10-22T05:42:12.498Z,71.99
2022-10-22T05:44:41.004Z,72.21
2022-10-22T05:47:08.095Z,72.18
2022-10-22T05:49:35.357Z,72.56
2022-10-22T05:52:02.348Z,72.67
2022-10-22T05:54:29.361Z,72.54
2022-10-22T05:56:56.302Z,72.78
2022-10-22T05:59:23.253Z,72.96
2022-10-22T06:01:50.328Z,72.96
2022-10-22T06:04:18.152Z,72.93
2022-10-22T06:06:50.729Z,72.66
2022-10-22T06:09:25.233Z,72.63
2022-10-22T06:11:52.455Z,72.47
2022-10-22T06:14:20.526Z,72.03
2022-10-22T06:16:47.582Z,72.07
2022-10-22T06:19:18.393Z,71.85
2022-10-22T06:21:45.874Z,71.66
2022-10-22T06:24:13.344Z,71.58
2022-10-22T06:26:41.097Z,70.91
2022-10-22T06:29:08.812Z,70.80
2022-10-22T06:31:38.516Z,70.51
2022-10-22T06:34:07.974Z,70.41
2022-10-22T06:36:35.496Z,70.40
2022-10-22T06:39:03.031Z,70.17
2022-10-22T06:41:29.946Z,70.53
2022-10-22T06:43:58.111Z,68.90
2022-10-22T06:46:26.365Z,69.17
2022-10-22T06:49:03.108Z,67.45
2022-10-22T06:51:30.107Z,67.27
2022-10-22T06:53:58.650Z,67.58
2022-10-22T06:56:27.667Z,67.50
2022-10-22T06:58:56.038Z,67.01
2022-10-22T07:01:29.372Z,67.83
2022-10-22T07:03:57.040Z,67.67
2022-10-22T07:06:25.838Z,67.29
2022-10-22T07:08:54.783Z,66.95
2022-10-22T07:11:30.970Z,66.67
2022-10-22T07:14:00.893Z,66.54
2022-10-22T07:16:31.072Z,66.01
2022-10-22T07:18:59.701Z,66.65
2022-10-22T07:21:26.709Z,66.63
2022-10-22T07:23:53.880Z,66.13
2022-10-22T07:26:21.161Z,66.21
2022-10-22T07:28:48.297Z,66.33
2022-10-22T07:31:16.994Z,66.31
2022-10-22T07:33:44.235Z,65.45
2022-10-22T07:36:18.118Z,65.55
2022-10-22T07:38:53.738Z,65.78
2022-10-22T07:41:20.697Z,65.88
2022-10-22T07:43:47.584Z,64.99
2022-10-22T07:46:14.471Z,64.81
2022-10-22T07:48:41.687Z,64.86
2022-10-22T07:51:08.688Z,64.84
2022-10-22T07:53:35.830Z,64.98
2022-10-22T07:56:02.971Z,64.41
2022-10-22T07:58:30.134Z,64.30
2022-10-22T08:01:01.159Z,64.07
2022-10-22T08:03:29.405Z,63.39
2022-10-22T08:05:56.369Z,63.72
2022-10-22T08:08:27.125Z,63.06
2022-10-22T08:10:59.534Z,63.10
2022-10-22T08:13:27.614Z,62.64
2022-10-22T08:15:57.375Z,64.03
2022-10-22T08:18:25.071Z,63.30
2022-10-22T08:20:52.392Z,62.75
2022-10-22T08:23:24.406Z,62.79
2022-10-22T08:25:54.684Z,63.19
2022-10-22T08:28:22.363Z,62.80
2022-10-22T08:30:49.482Z,62.20
2022-10-22T08:33:16.747Z,61.57
2022-10-22T08:35:51.329Z,61.11
2022-10-22T08:38:19.534Z,61.57
2022-10-22T08:40:56.990Z,61.57
2022-10-22T08:43:51.746Z,61.88
2022-10-22T08:46:56.153Z,60.95
2022-10-22T08:49:27.598Z,62.13
2022-10-22T08:51:57.601Z,61.38
2022-10-22T08:54:43.143Z,61.66
2022-10-22T08:57:10.044Z,60.88
2022-10-22T08:59:46.284Z,60.82
2022-10-22T09:02:25.552Z,60.90
2022-10-22T09:05:03.843Z,60.84
2022-10-22T09:07:30.995Z,60.53
2022-10-22T09:10:00.453Z,60.33
2022-10-22T09:12:28.709Z,59.32
2022-10-22T09:14:57.085Z,60.59
2022-10-22T09:17:38.726Z,60.69
2022-10-22T09:20:34.562Z,61.38
2022-10-22T09:23:24.795Z,61.64
2022-10-22T09:25:52.772Z,61.09
2022-10-22T09:28:19.691Z,62.05
2022-10-22T09:30:46.830Z,62.00
2022-10-22T09:33:24.701Z,62.41
2022-10-22T09:36:03.664Z,62.13
2022-10-22T09:38:34.418Z,62.69
2022-10-22T09:41:05.165Z,62.28
2022-10-22T09:43:33.809Z,62.22
2022-10-22T09:46:04.833Z,62.05
2022-10-22T09:48:48.799Z,61.98
2022-10-22T09:51:21.110Z,61.51
2022-10-22T09:53:57.074Z,62.58
2022-10-22T09:56:29.043Z,62.03
2022-10-22T09:58:58.015Z,61.43
2022-10-22T10:01:31.873Z,61.64
2022-10-22T10:04:09.880Z,61.44
2022-10-22T10:06:40.515Z,62.28
2022-10-22T10:09:25.721Z,61.50
2022-10-22T10:12:31.481Z,61.59
2022-10-22T10:15:36.742Z,60.68
2022-10-22T10:18:06.369Z,60.60
2022-10-22T10:21:10.755Z,60.90
2022-10-22T10:23:50.026Z,60.69
2022-10-22T10:26:43.815Z,59.79
2022-10-22T10:29:16.039Z,60.45
2022-10-22T10:32:09.499Z,60.58
2022-10-22T10:35:03.695Z,61.10
2022-10-22T10:37:43.950Z,60.96
2022-10-22T10:40:29.339Z,61.39
2022-10-22T10:43:02.964Z,61.04
2022-10-22T10:45:42.508Z,61.57
2022-10-22T10:48:46.346Z,61.19
2022-10-22T10:51:38.357Z,60.80
2022-10-22T10:54:23.855Z,60.86
2022-10-22T10:56:53.684Z,60.77
2022-10-22T11:00:02.037Z,60.35
2022-10-22T11:05:29.015Z,60.31
2022-10-22T11:08:11.581Z,60.56
2022-10-22T11:10:45.722Z,60.84
2022-10-22T11:13:42.990Z,61.13
2022-10-22T11:16:24.892Z,61.12
2022-10-22T11:19:22.642Z,61.64
2022-10-22T11:22:06.294Z,61.04
2022-10-22T11:24:43.414Z,61.27
2022-10-22T11:27:29.329Z,60.77
2022-10-22T11:30:15.169Z,60.83
2022-10-22T11:32:46.527Z,61.22
2022-10-22T11:35:20.214Z,61.60
2022-10-22T11:37:52.723Z,61.80
2022-10-22T11:40:22.303Z,61.90
2022-10-22T11:42:59.196Z,61.56
2022-10-22T11:45:30.257Z,61.59
2022-10-22T11:47:59.086Z,62.34
2022-10-22T11:50:27.687Z,61.86
2022-10-22T11:53:04.001Z,61.54
2022-10-22T11:55:51.905Z,61.17
2022-10-22T11:58:49.524Z,61.81
2022-10-22T12:01:27.014Z,61.59
2022-10-22T12:04:23.674Z,60.99
2022-10-22T12:07:02.440Z,61.00
2022-10-22T12:09:32.984Z,61.93
2022-10-22T12:12:12.579Z,61.93
2022-10-22T12:14:56.582Z,61.35
2022-10-22T12:17:25.141Z,61.10
2022-10-22T12:20:19.020Z,61.01
2022-10-22T12:22:46.912Z,60.78
2022-10-22T12:25:22.349Z,61.87
2022-10-22T12:27:57.328Z,61.51
2022-10-22T12:30:27.456Z,61.75
2022-10-22T12:33:02.834Z,61.59
2022-10-22T12:35:43.701Z,61.74
2022-10-22T12:38:20.373Z,61.42
2022-10-22T12:40:49.212Z,61.96
2022-10-22T12:43:19.372Z,62.08
2022-10-22T12:45:49.601Z,61.70
2022-10-22T12:48:23.993Z,62.01
2022-10-22T12:50:58.633Z,62.21
2022-10-22T12:53:31.109Z,62.48
2022-10-22T12:56:05.491Z,61.96
2022-10-22T12:58:40.746Z,62.18
2022-10-22T13:01:10.770Z,61.20
2022-10-22T13:03:45.130Z,62.04
2022-10-22T13:06:19.286Z,61.77
2022-10-22T13:09:25.415Z,61.65
2022-10-22T13:11:58.373Z,62.22
2022-10-22T13:14:25.452Z,63.21
2022-10-22T13:17:38.238Z,63.43
2022-10-22T13:20:24.217Z,63.25
2022-10-22T13:23:03.430Z,63.77
2022-10-22T13:25:40.722Z,63.75
2022-10-22T13:28:22.035Z,63.61
2022-10-22T13:31:15.606Z,62.53
2022-10-22T13:33:45.253Z,62.64
2022-10-22T13:36:15.503Z,62.50
2022-10-22T13:38:43.798Z,62.80
2022-10-22T13:41:24.681Z,62.93
2022-10-22T13:43:52.726Z,62.74
2022-10-22T13:46:20.901Z,63.35
2022-10-22T13:48:49.783Z,62.98
2022-10-22T13:51:20.660Z,62.85
2022-10-22T13:53:48.935Z,62.52
2022-10-22T13:56:18.447Z,62.58
2022-10-22T13:58:47.518Z,62.18
2022-10-22T14:01:22.113Z,61.52
2022-10-22T14:03:55.524Z,61.91
2022-10-22T14:06:23.231Z,61.83
2022-10-22T14:08:58.548Z,61.59
2022-10-22T14:11:27.452Z,60.98
2022-10-22T14:13:54.979Z,60.79
2022-10-22T14:16:24.463Z,61.25
2022-10-22T14:18:51.885Z,61.49
2022-10-22T14:21:19.329Z,61.70
2022-10-22T14:23:48.491Z,61.21
2022-10-22T14:26:35.150Z,61.34
2022-10-22T14:29:11.454Z,60.96
2022-10-22T14:31:44.501Z,60.46
2022-10-22T14:34:13.728Z,60.25
2022-10-22T14:36:44.184Z,60.07
2022-10-22T14:39:12.256Z,60.25
2022-10-22T14:41:39.778Z,60.11
2022-10-22T14:44:06.761Z,60.17
2022-10-22T14:46:34.024Z,60.23
2022-10-22T14:49:01.090Z,60.67
2022-10-22T14:51:28.153Z,60.21
2022-10-22T14:53:55.080Z,60.38
2022-10-22T14:56:22.138Z,60.69
2022-10-22T14:58:50.083Z,60.83
2022-10-22T15:01:18.459Z,60.72
2022-10-22T15:03:45.483Z,61.05
2022-10-22T15:06:12.389Z,61.05
2022-10-22T15:08:39.656Z,61.27
2022-10-22T15:11:10.862Z,61.41
2022-10-22T15:13:38.080Z,61.34
2022-10-22T15:16:10.634Z,61.78
2022-10-22T15:18:37.952Z,61.60
2022-10-22T15:21:08.363Z,62.44
2022-10-22T15:23:36.749Z,62.11
2022-10-22T15:26:03.862Z,62.15
2022-10-22T15:28:32.469Z,62.58
2022-10-22T15:31:00.928Z,62.72
2022-10-22T15:33:29.451Z,63.19
2022-10-22T15:35:57.415Z,62.87
2022-10-22T15:41:08.531Z,63.43
2022-10-22T15:43:35.879Z,63.13
2022-10-22T15:46:13.024Z,63.34
2022-10-22T15:48:40.127Z,62.70
2022-10-22T15:51:18.833Z,62.88
2022-10-22T15:53:57.311Z,62.97
2022-10-22T15:56:26.283Z,63.35
2022-10-22T15:58:58.815Z,63.43
2022-10-22T16:01:27.149Z,63.31
2022-10-22T16:04:00.288Z,64.24
2022-10-22T16:06:28.405Z,63.62
2022-10-22T16:08:59.211Z,63.83
2022-10-22T16:11:27.719Z,63.88
2022-10-22T16:13:59.640Z,64.31
2022-10-22T16:16:29.019Z,64.15
2022-10-22T16:18:56.379Z,64.52
2022-10-22T16:21:24.018Z,64.81
2022-10-22T16:23:51.692Z,65.36
2022-10-22T16:26:19.523Z,65.42
2022-10-22T16:28:47.775Z,65.49
2022-10-22T16:31:17.550Z,65.91
2022-10-22T16:33:49.221Z,65.54
2022-10-22T16:36:19.440Z,65.61
2022-10-22T16:38:47.729Z,65.56
2022-10-22T16:41:23.687Z,65.88
2022-10-22T16:43:55.225Z,65.83
2022-10-22T16:46:23.373Z,65.59
2022-10-22T16:48:52.856Z,65.40
2022-10-22T16:51:22.871Z,64.77
2022-10-22T16:53:52.666Z,65.13
2022-10-22T16:56:20.608Z,65.00
2022-10-22T16:58:50.279Z,65.22
2022-10-22T17:01:19.109Z,65.18
2022-10-22T17:03:46.572Z,64.92
2022-10-22T17:06:14.144Z,64.95
2022-10-22T17:08:42.186Z,65.36
2022-10-22T17:11:17.381Z,64.54
2022-10-22T17:13:47.137Z,65.13
2022-10-22T17:16:16.212Z,64.84
2022-10-22T17:21:19.183Z,65.25
2022-10-22T17:23:46.809Z,64.89
2022-10-22T17:26:20.927Z,65.39
2022-10-22T17:28:49.187Z,64.96
2022-10-22T17:31:18.211Z,65.00
2022-10-22T17:33:46.218Z,65.24
2022-10-22T17:36:14.114Z,65.10
2022-10-22T17:38:43.576Z,64.61
2022-10-22T17:41:17.954Z,65.22
2022-10-22T17:46:21.326Z,64.54
2022-10-22T17:48:52.855Z,65.16
2022-10-22T17:51:21.115Z,64.70
2022-10-22T17:53:50.819Z,64.64
2022-10-22T17:56:21.185Z,64.88
2022-10-22T17:58:48.510Z,64.95
2022-10-22T18:01:18.687Z,64.91
2022-10-22T18:03:45.933Z,64.94
2022-10-22T18:06:13.721Z,64.55
2022-10-22T18:08:41.237Z,64.89
2022-10-22T18:11:14.090Z,65.13
2022-10-22T18:13:41.187Z,64.93
2022-10-22T18:16:08.490Z,64.93
2022-10-22T18:18:36.612Z,65.10
2022-10-22T18:21:05.245Z,65.08
2022-10-22T18:23:33.628Z,64.59
2022-10-22T18:26:00.676Z,64.87
2022-10-22T18:28:27.805Z,64.79
2022-10-22T18:30:54.887Z,64.84
2022-10-22T18:33:24.440Z,65.00
2022-10-22T18:35:52.820Z,64.86
2022-10-22T18:38:22.070Z,65.02
2022-10-22T18:40:50.497Z,64.92
2022-10-22T18:43:18.238Z,64.72
2022-10-22T18:45:47.460Z,64.57
2022-10-22T18:48:19.164Z,65.05
2022-10-22T18:50:47.468Z,64.89
2022-10-22T18:53:16.738Z,65.00
2022-10-22T18:55:44.642Z,64.58
2022-10-22T18:58:11.517Z,64.82
2022-10-22T19:00:39.401Z,65.24
2022-10-22T19:03:08.916Z,64.83
2022-10-22T19:05:44.159Z,64.86
2022-10-22T19:08:12.662Z,64.32
2022-10-22T19:10:39.905Z,64.24
2022-10-22T19:13:06.997Z,64.71
2022-10-22T19:15:34.239Z,64.54
2022-10-22T19:18:01.213Z,64.61
2022-10-22T19:20:28.307Z,64.62
2022-10-22T19:22:56.691Z,64.99
2022-10-22T19:25:24.428Z,64.49
2022-10-22T19:27:51.428Z,64.47
2022-10-22T19:30:20.275Z,64.30
2022-10-22T19:32:48.999Z,64.37
2022-10-22T19:35:16.635Z,64.13
2022-10-22T19:37:47.567Z,64.46
2022-10-22T19:40:15.867Z,64.56
2022-10-22T19:42:44.646Z,64.47
2022-10-22T19:45:12.063Z,64.29
2022-10-22T19:47:39.114Z,64.13
2022-10-22T19:50:06.663Z,64.04
2022-10-22T19:52:33.716Z,63.98
2022-10-22T19:55:00.878Z,64.49
2022-10-22T19:57:28.025Z,64.38
2022-10-22T19:59:55.153Z,64.12
2022-10-22T20:02:22.277Z,64.75
2022-10-22T20:04:50.584Z,64.31
2022-10-22T20:07:18.030Z,64.52
2022-10-22T20:09:44.983Z,64.35
2022-10-22T20:12:11.933Z,64.82
2022-10-22T20:14:40.049Z,64.80
2022-10-22T20:17:07.072Z,64.46
2022-10-22T20:19:34.046Z,64.87
2022-10-22T20:22:01.154Z,65.22
2022-10-22T20:24:28.181Z,64.80
2022-10-22T20:26:55.207Z,64.91
2022-10-22T20:29:22.187Z,64.54
2022-10-22T20:31:49.475Z,64.86
2022-10-22T20:34:16.642Z,64.23
2022-10-22T20:36:43.891Z,64.29
2022-10-22T20:39:13.497Z,63.71
2022-10-22T20:41:41.141Z,63.87
2022-10-22T20:44:13.159Z,63.60
2022-10-22T20:46:40.189Z,63.50
2022-10-22T20:49:15.653Z,63.86
2022-10-22T20:51:43.154Z,64.26
2022-10-22T20:54:10.783Z,64.19
2022-10-22T20:56:39.501Z,64.37
2022-10-22T20:59:08.675Z,64.00
2022-10-22T21:01:45.270Z,64.28
2022-10-22T21:04:12.873Z,64.31
2022-10-22T21:06:41.798Z,64.05
2022-10-22T21:09:10.664Z,64.32
2022-10-22T21:11:39.050Z,64.35
2022-10-22T21:14:08.315Z,64.50
2022-10-22T21:16:36.365Z,64.35
2022-10-22T21:19:03.453Z,64.22
2022-10-22T21:21:30.450Z,64.72
2022-10-22T21:23:57.499Z,64.61
2022-10-22T21:26:24.783Z,64.53
2022-10-22T21:28:51.828Z,64.29
2022-10-22T21:31:22.197Z,64.24
2022-10-22T21:33:50.225Z,63.99
2022-10-22T21:36:21.637Z,64.28
2022-10-22T21:38:53.757Z,64.28
2022-10-22T21:41:23.227Z,64.32
2022-10-22T21:43:50.886Z,64.17
2022-10-22T21:46:20.968Z,63.94
2022-10-22T21:48:52.568Z,64.13
2022-10-22T21:51:20.847Z,63.84
2022-10-22T21:53:49.249Z,63.91
2022-10-22T21:56:22.748Z,63.67
2022-10-22T21:58:50.028Z,63.46
2022-10-22T22:01:17.580Z,63.66
2022-10-22T22:03:49.127Z,63.75
2022-10-22T22:06:21.201Z,63.85
2022-10-22T22:08:49.930Z,63.61
2022-10-22T22:11:20.348Z,63.54
2022-10-22T22:13:48.909Z,63.30
2022-10-22T22:16:27.069Z,63.91
2022-10-22T22:19:01.077Z,63.61
2022-10-22T22:21:28.786Z,63.87
2022-10-22T22:23:56.900Z,64.01
2022-10-22T22:26:29.618Z,64.02
2022-10-22T22:28:59.333Z,64.47
2022-10-22T22:31:32.344Z,64.42
2022-10-22T22:34:03.350Z,64.06
2022-10-22T22:36:34.824Z,63.96
2022-10-22T22:39:03.221Z,64.03
2022-10-22T22:41:30.193Z,63.88
2022-10-22T22:43:57.255Z,63.74
2022-10-22T22:46:24.445Z,63.78
2022-10-22T22:48:51.680Z,63.88
2022-10-22T22:51:20.504Z,63.95
2022-10-22T22:53:47.757Z,63.90
2022-10-22T22:56:16.129Z,63.65
2022-10-22T22:58:44.044Z,64.10
2022-10-22T23:01:14.687Z,63.64
2022-10-22T23:03:43.347Z,63.62
2022-10-22T23:06:10.473Z,63.22
2022-10-22T23:08:37.755Z,63.39
2022-10-22T23:11:11.649Z,63.20
2022-10-22T23:13:41.535Z,62.94
2022-10-22T23:16:20.056Z,63.26
2022-10-22T23:18:48.764Z,63.09
2022-10-22T23:21:18.945Z,63.25
2022-10-22T23:23:48.269Z,63.49
2022-10-22T23:26:21.582Z,63.15
2022-10-22T23:28:49.308Z,63.05
2022-10-22T23:31:18.628Z,63.31
2022-10-22T23:33:46.119Z,63.49
2022-10-22T23:36:13.501Z,63.28
2022-10-22T23:38:41.767Z,63.35
2022-10-22T23:41:09.420Z,63.41
2022-10-22T23:43:37.929Z,63.37
2022-10-22T23:46:07.289Z,63.42
2022-10-22T23:48:34.895Z,63.52
2022-10-22T23:51:10.612Z,63.54
2022-10-22T23:53:38.407Z,63.21
2022-10-22T23:56:07.953Z,63.26
2022-10-22T23:58:35.970Z,63.14
